createdAt,value
2022-09-05T00:00:08.431Z,22.37
2022-09-05T00:02:49.190Z,21.59
2022-09-05T00:06:02.778Z,22.00
2022-09-05T00:08:51.337Z,22.32
2022-09-05T00:11:42.715Z,21.95
2022-09-05T00:14:16.745Z,21.92
2022-09-05T00:17:18.677Z,22.39
2022-09-05T00:24:23.214Z,22.35
2022-09-05T00:24:42.666Z,22.77
2022-09-05T00:26:30.183Z,22.43
2022-09-05T00:29:01.935Z,22.00
2022-09-05T00:31:57.762Z,22.14
2022-09-05T00:34:38.752Z,22.28
2022-09-05T00:37:37.949Z,22.53
2022-09-05T00:40:26.159Z,22.26
2022-09-05T00:43:06.680Z,22.75
2022-09-05T00:45:44.323Z,22.73
2022-09-05T00:48:41.963Z,22.49
2022-09-05T00:51:34.428Z,22.39
2022-09-05T00:54:27.126Z,22.06
2022-09-05T00:57:46.049Z,22.34
2022-09-05T01:00:17.937Z,23.10
2022-09-05T01:03:10.282Z,22.60
2022-09-05T01:05:58.831Z,22.50
2022-09-05T01:08:31.657Z,22.85
2022-09-05T01:11:07.200Z,22.19
2022-09-05T01:13:34.593Z,22.00
2022-09-05T01:16:21.988Z,21.52
2022-09-05T01:19:29.823Z,22.37
2022-09-05T01:22:22.058Z,22.38
2022-09-05T01:25:06.827Z,22.48
2022-09-05T01:29:13.189Z,21.83
2022-09-05T01:31:05.175Z,21.59
2022-09-05T01:34:05.202Z,21.96
2022-09-05T01:36:53.329Z,21.44
2022-09-05T01:40:11.469Z,21.42
2022-09-05T01:42:25.360Z,21.79
2022-09-05T01:44:59.052Z,21.13
2022-09-05T01:47:41.193Z,21.36
2022-09-05T01:50:46.694Z,20.58
2022-09-05T01:53:31.839Z,21.26
2022-09-05T01:56:19.086Z,21.73
2022-09-05T01:59:04.122Z,21.28
2022-09-05T02:01:58.314Z,21.12
2022-09-05T02:04:45.382Z,21.65
2022-09-05T02:07:30.472Z,22.15
2022-09-05T02:10:20.135Z,22.17
2022-09-05T02:13:01.869Z,22.21
2022-09-05T02:15:55.437Z,21.88
2022-09-05T02:18:46.016Z,21.66
2022-09-05T02:21:21.691Z,21.85
2022-09-05T02:24:14.882Z,22.36
2022-09-05T02:26:53.070Z,22.09
2022-09-05T02:29:36.787Z,21.72
2022-09-05T02:32:27.760Z,21.51
2022-09-05T02:35:04.452Z,21.53
2022-09-05T02:39:18.615Z,21.77
2022-09-05T02:45:12.353Z,21.29
2022-09-05T02:45:20.531Z,21.99
2022-09-05T02:46:36.671Z,21.50
2022-09-05T02:49:44.524Z,21.93
2022-09-05T02:57:26.731Z,21.15
2022-09-05T02:57:41.357Z,21.20
2022-09-05T02:58:07.008Z,21.39
2022-09-05T03:00:51.158Z,20.66
2022-09-05T03:03:39.218Z,21.16
2022-09-05T03:06:15.279Z,20.62
2022-09-05T03:09:17.459Z,20.21
2022-09-05T03:11:53.763Z,20.49
2022-09-05T03:14:59.105Z,21.34
2022-09-05T03:17:38.153Z,21.50
2022-09-05T03:20:07.837Z,22.05
2022-09-05T03:23:04.570Z,21.35
2022-09-05T03:25:48.393Z,21.79
2022-09-05T03:28:58.186Z,21.70
2022-09-05T03:31:49.761Z,21.23
2022-09-05T03:34:41.370Z,20.82
2022-09-05T03:37:29.509Z,20.96
2022-09-05T03:40:26.487Z,21.22
2022-09-05T03:43:21.118Z,21.11
2022-09-05T03:45:50.940Z,21.90
2022-09-05T03:48:29.307Z,21.41
2022-09-05T03:57:04.493Z,21.87
2022-09-05T03:57:12.691Z,22.13
2022-09-05T03:57:32.333Z,21.28
2022-09-05T04:00:10.880Z,21.34
2022-09-05T04:07:10.062Z,21.06
2022-09-05T04:08:14.409Z,21.21
2022-09-05T04:09:02.162Z,20.70
2022-09-05T04:11:57.764Z,21.20
2022-09-05T04:14:46.425Z,20.80
2022-09-05T04:17:25.413Z,20.83
2022-09-05T04:20:05.753Z,20.90
2022-09-05T04:23:10.474Z,21.07
2022-09-05T04:26:09.287Z,21.87
2022-09-05T04:28:48.693Z,22.56
2022-09-05T04:31:32.346Z,21.75
2022-09-05T04:34:28.839Z,21.45
2022-09-05T04:37:02.429Z,21.72
2022-09-05T04:39:30.147Z,22.48
2022-09-05T04:42:05.868Z,21.99
2022-09-05T04:44:46.552Z,21.94
2022-09-05T04:47:19.143Z,21.96
2022-09-05T04:50:01.082Z,22.26
2022-09-05T04:52:54.648Z,22.65
2022-09-05T04:55:26.136Z,22.47
2022-09-05T04:58:01.502Z,22.36
2022-09-05T05:06:03.086Z,22.45
2022-09-05T05:06:12.050Z,21.91
2022-09-05T05:06:45.347Z,21.82
2022-09-05T05:09:24.548Z,22.09
2022-09-05T05:17:54.253Z,22.63
2022-09-05T05:18:07.633Z,22.92
2022-09-05T05:18:39.553Z,23.31
2022-09-05T05:21:15.086Z,23.79
2022-09-05T05:23:44.383Z,24.96
2022-09-05T05:26:43.296Z,25.85
2022-09-05T05:29:22.570Z,27.23
2022-09-05T05:32:00.749Z,28.18
2022-09-05T05:34:31.891Z,29.21
2022-09-05T05:37:01.079Z,29.87
2022-09-05T05:39:29.927Z,30.44
2022-09-05T05:41:58.633Z,30.76
2022-09-05T05:44:35.638Z,30.90
2022-09-05T05:47:09.689Z,31.48
2022-09-05T05:49:46.028Z,32.34
2022-09-05T05:52:37.851Z,33.01
2022-09-05T05:55:51.165Z,33.84
2022-09-05T05:58:37.713Z,33.36
2022-09-05T06:01:37.061Z,33.31
2022-09-05T06:04:53.149Z,33.74
2022-09-05T06:09:14.118Z,33.44
2022-09-05T06:14:56.617Z,33.62
2022-09-05T06:14:58.708Z,33.67
2022-09-05T06:17:08.609Z,33.76
2022-09-05T06:22:00.596Z,33.98
2022-09-05T06:22:59.861Z,33.62
2022-09-05T06:25:52.008Z,33.51
2022-09-05T06:28:26.162Z,33.45
2022-09-05T06:31:29.942Z,31.59
2022-09-05T06:34:27.220Z,31.57
2022-09-05T06:37:02.305Z,30.34
2022-09-05T06:39:47.861Z,30.95
2022-09-05T06:42:47.198Z,31.18
2022-09-05T06:45:30.359Z,30.72
2022-09-05T06:48:14.423Z,30.61
2022-09-05T06:51:11.371Z,30.30
2022-09-05T06:53:59.385Z,32.32
2022-09-05T06:56:45.294Z,32.14
2022-09-05T06:59:45.876Z,32.63
2022-09-05T07:02:59.056Z,33.40
2022-09-05T07:05:38.962Z,33.82
2022-09-05T07:08:35.470Z,33.79
2022-09-05T07:11:16.186Z,33.51
2022-09-05T07:13:53.503Z,32.63
2022-09-05T07:16:38.005Z,32.10
2022-09-05T07:19:28.701Z,32.15
2022-09-05T07:22:48.001Z,32.64
2022-09-05T07:25:19.176Z,32.58
2022-09-05T07:28:26.042Z,32.56
2022-09-05T07:31:06.879Z,33.17
2022-09-05T07:33:35.125Z,33.18
2022-09-05T07:36:24.383Z,33.48
2022-09-05T07:39:12.320Z,32.42
2022-09-05T07:41:51.393Z,32.70
2022-09-05T07:44:32.352Z,33.15
2022-09-05T07:47:05.355Z,32.37
2022-09-05T07:49:36.262Z,31.61
2022-09-05T07:56:56.118Z,33.11
2022-09-05T07:56:59.247Z,32.62
2022-09-05T07:58:11.900Z,31.59
2022-09-05T08:00:39.259Z,29.52
2022-09-05T08:03:31.423Z,31.41
2022-09-05T08:06:01.722Z,33.36
2022-09-05T08:08:33.714Z,30.39
2022-09-05T08:11:25.629Z,32.71
2022-09-05T08:14:40.666Z,31.93
2022-09-05T08:16:53.428Z,31.05
2022-09-05T08:19:38.312Z,31.54
2022-09-05T08:22:07.154Z,29.89
2022-09-05T08:24:38.774Z,30.56
2022-09-05T08:27:24.829Z,31.30
2022-09-05T08:30:24.748Z,32.04
2022-09-05T08:32:48.877Z,32.88
2022-09-05T08:35:41.119Z,32.06
2022-09-05T08:38:08.664Z,31.44
2022-09-05T08:41:04.251Z,32.38
2022-09-05T08:45:49.081Z,31.56
2022-09-05T08:46:50.301Z,30.19
2022-09-05T08:49:38.575Z,31.52
2022-09-05T08:52:08.923Z,32.11
2022-09-05T08:54:39.478Z,30.95
2022-09-05T08:57:18.465Z,32.43
2022-09-05T09:00:19.444Z,32.60
2022-09-05T09:03:03.961Z,32.51
2022-09-05T09:06:12.374Z,32.13
2022-09-05T09:08:56.843Z,33.43
2022-09-05T09:11:37.320Z,33.19
2022-09-05T09:14:31.551Z,32.43
2022-09-05T09:17:16.122Z,33.44
2022-09-05T09:19:50.088Z,34.44
2022-09-05T09:22:29.195Z,33.55
2022-09-05T09:25:14.274Z,33.60
2022-09-05T09:28:48.274Z,33.78
2022-09-05T09:31:07.630Z,33.63
2022-09-05T09:33:43.976Z,33.31
2022-09-05T09:36:16.808Z,34.27
2022-09-05T09:39:11.722Z,34.78
2022-09-05T09:42:33.400Z,34.90
2022-09-05T09:45:22.750Z,34.58
2022-09-05T09:48:15.586Z,33.67
2022-09-05T09:51:00.703Z,33.59
2022-09-05T09:53:43.051Z,33.06
2022-09-05T09:56:22.393Z,34.04
2022-09-05T09:59:07.670Z,32.36
2022-09-05T10:02:07.333Z,32.72
2022-09-05T10:10:34.461Z,34.12
2022-09-05T10:10:51.624Z,34.44
2022-09-05T10:11:54.777Z,34.10
2022-09-05T10:14:53.882Z,32.88
2022-09-05T10:17:45.299Z,34.03
2022-09-05T10:20:21.987Z,33.99
2022-09-05T10:23:29.291Z,33.63
2022-09-05T10:26:17.220Z,34.58
2022-09-05T10:28:56.689Z,33.60
2022-09-05T10:33:10.500Z,32.68
2022-09-05T10:35:19.387Z,31.87
2022-09-05T10:37:55.066Z,32.41
2022-09-05T10:40:24.434Z,32.84
2022-09-05T10:43:01.420Z,33.69
2022-09-05T10:45:38.693Z,33.32
2022-09-05T10:48:22.310Z,33.50
2022-09-05T10:51:12.343Z,34.33
2022-09-05T10:54:26.806Z,34.42
2022-09-05T10:57:15.251Z,34.48
2022-09-05T11:02:23.406Z,33.72
2022-09-05T11:02:39.654Z,33.89
2022-09-05T11:05:26.072Z,34.02
2022-09-05T11:07:59.383Z,33.71
2022-09-05T11:10:41.532Z,34.36
2022-09-05T11:13:18.702Z,33.36
2022-09-05T11:16:04.966Z,32.12
2022-09-05T11:19:04.241Z,33.84
2022-09-05T11:22:23.150Z,33.74
2022-09-05T11:25:00.977Z,34.37
2022-09-05T11:27:33.027Z,32.60
2022-09-05T11:30:05.989Z,33.26
2022-09-05T11:39:50.616Z,33.47
2022-09-05T11:40:02.335Z,33.42
2022-09-05T11:40:26.292Z,33.13
2022-09-05T11:41:30.157Z,33.50
2022-09-05T11:44:08.410Z,34.32
2022-09-05T11:47:27.033Z,34.19
2022-09-05T11:50:09.035Z,34.44
2022-09-05T11:53:00.613Z,34.80
2022-09-05T11:55:40.450Z,33.82
2022-09-05T11:58:45.414Z,33.24
2022-09-05T12:01:44.302Z,33.58
2022-09-05T12:04:36.245Z,34.24
2022-09-05T12:07:30.307Z,34.42
2022-09-05T12:10:46.890Z,34.69
2022-09-05T12:13:57.042Z,34.06
2022-09-05T12:16:33.159Z,34.49
2022-09-05T12:19:32.742Z,34.66
2022-09-05T12:22:23.615Z,33.80
2022-09-05T12:25:26.539Z,34.08
2022-09-05T12:29:27.700Z,34.07
2022-09-05T12:32:59.626Z,33.80
2022-09-05T12:36:07.912Z,33.86
2022-09-05T12:40:54.951Z,34.01
2022-09-05T12:41:36.124Z,35.26
2022-09-05T12:43:44.922Z,34.80
2022-09-05T12:45:47.930Z,34.47
2022-09-05T12:48:38.867Z,33.73
2022-09-05T12:51:46.847Z,33.41
2022-09-05T12:54:29.865Z,33.56
2022-09-05T13:02:02.834Z,33.27
2022-09-05T13:03:05.713Z,33.63
2022-09-05T13:03:14.183Z,34.14
2022-09-05T13:05:52.807Z,34.77
2022-09-05T13:08:24.112Z,33.84
2022-09-05T13:14:48.093Z,33.40
2022-09-05T13:14:53.535Z,35.06
2022-09-05T13:16:45.865Z,35.04
2022-09-05T13:19:23.594Z,35.42
2022-09-05T13:21:52.890Z,34.71
2022-09-05T13:24:30.864Z,35.17
2022-09-05T13:27:07.327Z,34.90
2022-09-05T13:30:46.912Z,35.07
2022-09-05T13:38:00.927Z,35.08
2022-09-05T13:38:14.909Z,34.95
2022-09-05T13:41:04.588Z,32.99
2022-09-05T13:43:38.555Z,32.70
2022-09-05T13:46:11.242Z,32.87
2022-09-05T13:51:50.267Z,32.84
2022-09-05T13:54:36.593Z,32.68
2022-09-05T13:57:37.212Z,33.53
2022-09-05T14:00:07.163Z,32.14
2022-09-05T14:03:38.625Z,32.35
2022-09-05T14:06:03.530Z,32.13
2022-09-05T14:12:23.824Z,33.17
2022-09-05T14:15:10.779Z,33.16
2022-09-05T14:18:20.196Z,31.76
2022-09-05T14:21:17.362Z,32.57
2022-09-05T14:24:03.360Z,32.39
2022-09-05T14:26:35.995Z,32.48
2022-09-05T14:29:14.739Z,32.24
2022-09-05T14:37:40.538Z,31.98
2022-09-05T14:37:50.299Z,31.00
2022-09-05T14:38:09.188Z,30.61
2022-09-05T14:41:08.414Z,30.20
2022-09-05T14:43:47.563Z,30.73
2022-09-05T14:46:20.418Z,30.79
2022-09-05T14:48:52.995Z,29.85
2022-09-05T14:51:35.243Z,30.27
2022-09-05T15:02:41.428Z,31.45
2022-09-05T15:02:46.364Z,32.08
2022-09-05T15:03:01.963Z,32.47
2022-09-05T15:05:46.742Z,32.85
2022-09-05T15:11:00.593Z,32.48
2022-09-05T15:12:25.048Z,32.63
2022-09-05T15:14:03.740Z,34.06
2022-09-05T15:16:43.646Z,33.58
2022-09-05T15:19:30.782Z,33.50
2022-09-05T15:21:57.509Z,32.50
2022-09-05T15:24:30.378Z,33.59
2022-09-05T15:27:00.173Z,33.14
2022-09-05T15:29:29.652Z,33.23
2022-09-05T15:32:21.744Z,33.83
2022-09-05T15:34:50.441Z,31.92
2022-09-05T15:37:40.732Z,32.77
2022-09-05T15:40:22.924Z,32.56
2022-09-05T15:43:02.266Z,33.06
2022-09-05T15:45:32.591Z,32.85
2022-09-05T15:48:14.863Z,33.23
2022-09-05T15:50:46.766Z,33.23
2022-09-05T15:53:21.856Z,32.92
2022-09-05T15:55:50.362Z,32.27
2022-09-05T15:58:27.041Z,32.06
2022-09-05T16:00:56.958Z,31.89
2022-09-05T16:08:12.148Z,31.70
2022-09-05T16:10:40.126Z,31.58
2022-09-05T16:10:47.082Z,30.65
2022-09-05T16:12:49.935Z,30.82
2022-09-05T16:19:22.117Z,30.45
2022-09-05T16:23:19.204Z,30.78
2022-09-05T16:23:30.081Z,30.50
2022-09-05T16:24:07.435Z,30.52
2022-09-05T16:26:41.084Z,30.96
2022-09-05T16:29:26.049Z,31.04
2022-09-05T16:31:59.730Z,31.36
2022-09-05T16:34:35.797Z,31.62
2022-09-05T16:37:14.414Z,31.80
2022-09-05T16:39:54.533Z,31.96
2022-09-05T16:42:46.849Z,31.38
2022-09-05T16:45:33.760Z,31.23
2022-09-05T16:48:36.567Z,31.56
2022-09-05T16:51:13.313Z,30.56
2022-09-05T16:53:53.332Z,32.00
2022-09-05T16:56:36.060Z,32.18
2022-09-05T16:59:08.047Z,31.20
2022-09-05T17:02:06.474Z,31.76
2022-09-05T17:05:05.145Z,31.32
2022-09-05T17:08:17.712Z,30.85
2022-09-05T17:10:57.464Z,31.60
2022-09-05T17:13:38.958Z,31.15
2022-09-05T17:16:10.027Z,31.15
2022-09-05T17:18:37.946Z,30.96
2022-09-05T17:21:09.824Z,30.69
2022-09-05T17:29:32.754Z,30.99
2022-09-05T17:29:36.232Z,30.66
2022-09-05T17:32:47.439Z,29.95
2022-09-05T17:35:42.786Z,30.53
2022-09-05T17:38:41.709Z,30.28
2022-09-05T17:41:15.559Z,30.58
2022-09-05T17:43:42.749Z,31.09
2022-09-05T17:46:23.490Z,31.00
2022-09-05T17:49:19.049Z,30.06
2022-09-05T17:51:51.207Z,29.80
2022-09-05T17:54:30.346Z,29.92
2022-09-05T17:57:28.923Z,29.85
2022-09-05T17:59:57.787Z,29.75
2022-09-05T18:02:26.702Z,29.38
2022-09-05T18:04:56.050Z,29.06
2022-09-05T18:07:54.526Z,28.65
2022-09-05T18:10:27.295Z,28.69
2022-09-05T18:15:43.833Z,28.10
2022-09-05T18:19:28.810Z,27.36
2022-09-05T18:24:12.144Z,27.90
2022-09-05T18:26:45.274Z,27.82
2022-09-05T18:29:58.345Z,28.27
2022-09-05T18:33:54.009Z,28.21
2022-09-05T18:35:56.574Z,28.32
2022-09-05T18:38:50.252Z,27.77
2022-09-05T18:41:25.368Z,28.48
2022-09-05T18:44:12.514Z,28.17
2022-09-05T18:46:49.743Z,27.39
2022-09-05T18:50:21.280Z,27.18
2022-09-05T18:52:45.089Z,27.73
2022-09-05T18:56:09.324Z,28.05
2022-09-05T18:58:12.635Z,27.76
2022-09-05T19:00:46.830Z,27.36
2022-09-05T19:03:30.684Z,26.61
2022-09-05T19:06:35.732Z,27.19
2022-09-05T19:09:02.849Z,26.31
2022-09-05T19:11:34.373Z,26.89
2022-09-05T19:14:26.229Z,27.06
2022-09-05T19:17:07.646Z,27.73
2022-09-05T19:20:33.022Z,27.55
2022-09-05T19:23:12.803Z,27.54
2022-09-05T19:25:45.016Z,26.77
2022-09-05T19:36:44.700Z,26.36
2022-09-05T19:36:46.172Z,26.77
2022-09-05T19:37:09.603Z,26.48
2022-09-05T19:37:26.323Z,26.36
2022-09-05T19:47:11.135Z,26.27
2022-09-05T19:47:36.961Z,26.34
2022-09-05T19:47:38.545Z,26.00
2022-09-05T19:48:35.056Z,25.66
2022-09-05T19:51:16.975Z,25.12
2022-09-05T19:54:04.027Z,24.89
2022-09-05T19:56:40.230Z,25.25
2022-09-05T19:59:34.057Z,24.96
2022-09-05T20:02:02.575Z,25.17
2022-09-05T20:04:53.993Z,25.22
2022-09-05T20:07:27.556Z,25.26
2022-09-05T20:09:56.060Z,25.30
2022-09-05T20:12:34.999Z,25.60
2022-09-05T20:15:36.605Z,25.21
2022-09-05T20:18:27.927Z,26.03
2022-09-05T20:21:14.604Z,25.80
2022-09-05T20:23:44.160Z,25.96
2022-09-05T20:26:11.449Z,26.13
2022-09-05T20:28:40.477Z,26.25
2022-09-05T20:31:24.498Z,26.12
2022-09-05T20:33:58.082Z,25.94
2022-09-05T20:43:21.753Z,25.75
2022-09-05T20:43:24.764Z,26.15
2022-09-05T20:43:32.323Z,26.00
2022-09-05T20:54:09.664Z,25.41
2022-09-05T20:54:20.955Z,25.72
2022-09-05T20:54:25.303Z,25.39
2022-09-05T20:56:33.489Z,25.36
2022-09-05T20:59:01.081Z,25.39
2022-09-05T21:01:32.654Z,25.55
2022-09-05T21:04:01.686Z,25.50
2022-09-05T21:06:36.556Z,25.36
2022-09-05T21:09:24.431Z,25.41
2022-09-05T21:11:54.152Z,24.62
2022-09-05T21:14:22.825Z,23.81
2022-09-05T21:17:13.408Z,24.71
2022-09-05T21:19:42.314Z,24.35
2022-09-05T21:22:17.618Z,24.65
2022-09-05T21:24:46.757Z,24.39
2022-09-05T21:27:17.747Z,24.39
2022-09-05T21:29:45.122Z,24.31
2022-09-05T21:32:16.464Z,25.15
2022-09-05T21:34:49.281Z,24.57
2022-09-05T21:37:18.084Z,25.18
2022-09-05T21:39:59.342Z,25.35
2022-09-05T21:45:12.677Z,25.36
2022-09-05T21:47:41.328Z,25.55
2022-09-05T21:48:08.816Z,25.61
2022-09-05T21:50:49.723Z,25.08
2022-09-05T21:57:16.884Z,24.65
2022-09-05T21:59:27.732Z,24.61
2022-09-05T21:59:36.532Z,24.20
2022-09-05T22:02:07.341Z,24.27
2022-09-05T22:04:41.331Z,24.03
2022-09-05T22:07:09.367Z,24.33
2022-09-05T22:09:36.283Z,24.89
2022-09-05T22:12:17.497Z,25.08
2022-09-05T22:14:50.414Z,24.67
2022-09-05T22:17:17.486Z,24.37
2022-09-05T22:19:45.257Z,25.01
2022-09-05T22:22:18.015Z,24.86
2022-09-05T22:25:00.446Z,25.05
2022-09-05T22:27:27.693Z,24.74
2022-09-05T22:29:56.147Z,24.59
2022-09-05T22:32:34.991Z,24.29
2022-09-05T22:35:27.855Z,24.30
2022-09-05T22:37:59.206Z,24.15
2022-09-05T22:40:28.109Z,23.86
2022-09-05T22:42:56.956Z,24.98
2022-09-05T22:45:24.285Z,24.77
2022-09-05T22:47:51.357Z,24.72
2022-09-05T22:50:18.878Z,23.82
2022-09-05T22:52:45.808Z,24.34
2022-09-05T22:55:12.874Z,24.40
2022-09-05T22:57:40.425Z,24.14
2022-09-05T23:00:08.478Z,24.13
2022-09-05T23:02:35.440Z,23.81
2022-09-05T23:05:03.607Z,24.14
2022-09-05T23:07:32.333Z,24.90
2022-09-05T23:09:59.703Z,24.74
2022-09-05T23:12:26.684Z,24.63
2022-09-05T23:14:53.677Z,24.52
2022-09-05T23:17:20.610Z,24.66
2022-09-05T23:19:47.536Z,24.69
2022-09-05T23:22:14.569Z,24.17
2022-09-05T23:24:41.497Z,23.67
2022-09-05T23:27:08.402Z,24.13
2022-09-05T23:29:35.367Z,23.83
2022-09-05T23:32:02.475Z,23.49
2022-09-05T23:34:29.434Z,22.92
2022-09-05T23:36:56.347Z,22.85
2022-09-05T23:39:23.356Z,22.59
2022-09-05T23:41:50.317Z,22.68
2022-09-05T23:44:17.290Z,22.77
2022-09-05T23:46:44.469Z,22.98
2022-09-05T23:49:11.390Z,22.78
2022-09-05T23:51:38.299Z,23.50
2022-09-05T23:54:05.237Z,23.52
2022-09-05T23:56:32.170Z,23.40
2022-09-05T23:58:59.185Z,23.63
